ZGSZZJSY

Guest
Details From ZGSZ - BAOAN INTL
To ZJSY - PHOENIX INTL
Flight Number -
Tags generated
Created
Modified
Stats Distance 398 nm / 737 km
Max Altitude 32,000 ft / 9,754 m
Waypoints 7
Social Downloads 0
Likes 0
Share VATSIM

Download

Looking for another format? Having issues loading an existing format? Contact us
Advertisement - Login to hide

Notes

Basic altitude profile: - Ascent Rate: 2500ft/min - Ascent Speed: 250kts - Cruise Altitude: 33000ft - Cruise Speed: 420kts - Descent Rate: 1500ft/min - Descent Speed: 250kts

Route

ZGSZ CH A202 SAMAS G221 GIVIL ZJSY

ID Type Via Altitude Latitude Longitude Leg Dist Tot Dist Heading (true) Name
O ZGSZ APT - 0 ft / 0 m 22.63926˚ 113.81066˚ - 0 nm - BAOAN INTL
CH VOR - 9,900 ft / 3,018 m 22.21954˚ 114.03006˚ 27 nm 27 nm 154° / 154° CHEUNG CHAU VOR-DME
SIKOU FIX A202 (AWY-HI) 32,000 ft / 9,754 m 20.84333˚ 111.50000˚ 163 nm 191 nm 240° / 239° -
SAMAS FIX A202 (AWY-HI) 30,300 ft / 9,235 m 20.50500˚ 110.49500˚ 60 nm 251 nm 250° / 250° -
NYB VOR G221 (AWY-HI) 22,700 ft / 6,919 m 20.01333˚ 110.13667˚ 35 nm 287 nm 214° / 214° NANYINGBINDAO VOR-DME
GIVIL FIX G221 (AWY-HI) 12,200 ft / 3,719 m 19.25000˚ 109.83333˚ 48 nm 336 nm 201° / 200° -
O ZJSY APT - 0 ft / 0 m 18.30289˚ 109.41227˚ 61 nm 398 nm 203° / 203° PHOENIX INTL

Altitude Profile

Advertisement - Login to hide

Weather


0- 5 10 15 20 25 30 35+ Temperature / ° C

Clouds and Precipitation
Forecast for 2017-12-16 06:00 UTC. Updated 33 minutes ago

Ground ~20,000 ft ~40,000 ft Winds

ZGSZ

Details ICAO ZGSZ (SZX)
Name BAOAN INTL
Region China
Timezone Asia/Shanghai (UTC+8.0)
Stats Elevation 13 ft / 4 m (AMSL)
Location 22.639259° 113.810663°
Runways 1
Magnetic Variation 2.862° W

METAR

ZGSZ 160100Z 02006MPS 9999 BKN030 14/08 Q1026 NOSIG

Decode

TAF

Not found

Departure Runways

ID Width Length Bearing (true) Bearing (mag) Surface Threshold Offset Overrun Length
15 148 ft / 45 m 11,209 ft / 3,416 m 153.15° 156.01° Concrete 0 ft / 0 m 197 ft / 60 m
33 148 ft / 45 m 11,209 ft / 3,416 m 333.15° 336.01° Concrete 0 ft / 0 m 197 ft / 60 m

ZJSY

Details ICAO ZJSY (SYX)
Name PHOENIX INTL
Region China
Timezone Asia/Chongqing (UTC+8.0)
Stats Elevation 92 ft / 28 m (AMSL)
Location 18.302892° 109.412268°
Runways 1
Magnetic Variation 1.586° W

METAR

ZJSY 160100Z 09002MPS 060V130 CAVOK 24/21 Q1020 NOSIG

Decode

TAF

Not found

Destination Runways

ID Width Length Bearing (true) Bearing (mag) Surface Threshold Offset Overrun Length
08 148 ft / 45 m 11,103 ft / 3,384 m 82.20° 83.79° Concrete 0 ft / 0 m 195 ft / 59 m
26 148 ft / 45 m 11,103 ft / 3,384 m 262.21° 263.80° Concrete 0 ft / 0 m 195 ft / 59 m

Approach Navaids

Runway Type Ident Frequency Range Bearing (true) Bearing (mag) Slope Elevation
08 Localiser IKK 109.50 MHz 18 nm / 33 km 82.13° 83.71° - 92 ft / 28 m (AMSL)
08 Glidescope IKK 109.50 MHz 10 nm / 19 km 82.20° 83.79° 3.00° 68 ft / 21 m (AMSL)
08 DME IKK 109.50 MHz 18 nm / 33 km - - - 68 ft / 21 m (AMSL)